sensor_id;sensor_type;location;lat;lon;timestamp;pressure;altitude;pressure_sealevel;temperature;humidity
68634;BME280;55625;47.072;22.192;2023-08-20T00:01:45;99889.03;;;22.42;93.86
68634;BME280;55625;47.072;22.192;2023-08-20T00:04:11;99891.94;;;22.36;93.67
68634;BME280;55625;47.072;22.192;2023-08-20T00:06:38;99883.25;;;22.30;93.44
68634;BME280;55625;47.072;22.192;2023-08-20T00:09:05;99890.88;;;22.34;93.29
68634;BME280;55625;47.072;22.192;2023-08-20T00:11:33;99890.09;;;22.33;93.29
68634;BME280;55625;47.072;22.192;2023-08-20T00:13:58;99899.31;;;22.26;93.20
68634;BME280;55625;47.072;22.192;2023-08-20T00:16:25;99895.66;;;22.20;92.87
68634;BME280;55625;47.072;22.192;2023-08-20T00:18:51;99900.91;;;22.21;92.46
68634;BME280;55625;47.072;22.192;2023-08-20T00:21:17;99895.16;;;22.16;92.40
68634;BME280;55625;47.072;22.192;2023-08-20T00:23:43;99889.38;;;22.16;92.28
68634;BME280;55625;47.072;22.192;2023-08-20T00:26:09;99896.19;;;22.18;91.80
68634;BME280;55625;47.072;22.192;2023-08-20T00:28:36;99901.19;;;22.18;91.53
68634;BME280;55625;47.072;22.192;2023-08-20T00:31:04;99887.03;;;22.14;91.36
68634;BME280;55625;47.072;22.192;2023-08-20T00:33:31;99903.31;;;22.12;91.30
68634;BME280;55625;47.072;22.192;2023-08-20T00:35:57;99901.25;;;22.07;91.10
68634;BME280;55625;47.072;22.192;2023-08-20T00:38:23;99902.56;;;22.06;91.40
68634;BME280;55625;47.072;22.192;2023-08-20T00:40:49;99900.66;;;22.02;91.34
68634;BME280;55625;47.072;22.192;2023-08-20T00:43:15;99897.03;;;22.08;90.67
68634;BME280;55625;47.072;22.192;2023-08-20T00:45:41;99892.03;;;22.08;90.61
68634;BME280;55625;47.072;22.192;2023-08-20T00:48:08;99896.78;;;22.06;90.99
68634;BME280;55625;47.072;22.192;2023-08-20T00:50:34;99905.97;;;22.04;91.27
68634;BME280;55625;47.072;22.192;2023-08-20T00:53:01;99890.16;;;21.99;91.83
68634;BME280;55625;47.072;22.192;2023-08-20T00:55:28;99895.16;;;21.99;91.80
68634;BME280;55625;47.072;22.192;2023-08-20T00:57:54;99889.91;;;21.97;92.23
68634;BME280;55625;47.072;22.192;2023-08-20T01:00:21;99888.09;;;21.94;92.07
68634;BME280;55625;47.072;22.192;2023-08-20T01:02:48;99901.22;;;21.90;92.39
68634;BME280;55625;47.072;22.192;2023-08-20T01:05:15;99898.63;;;21.86;92.89
68634;BME280;55625;47.072;22.192;2023-08-20T01:08:07;99906.25;;;21.84;93.74
68634;BME280;55625;47.072;22.192;2023-08-20T01:11:16;99907.03;;;21.84;93.84
68634;BME280;55625;47.072;22.192;2023-08-20T01:13:43;99906.25;;;21.78;94.02
68634;BME280;55625;47.072;22.192;2023-08-20T01:16:09;99908.34;;;21.72;94.65
68634;BME280;55625;47.072;22.192;2023-08-20T01:18:35;99900.22;;;21.65;95.30
68634;BME280;55625;47.072;22.192;2023-08-20T01:21:11;99899.41;;;21.64;94.58
68634;BME280;55625;47.072;22.192;2023-08-20T01:24:01;99899.97;;;21.57;95.33
68634;BME280;55625;47.072;22.192;2023-08-20T01:29:25;99911.53;;;21.52;94.65
68634;BME280;55625;47.072;22.192;2023-08-20T01:31:53;99901.53;;;21.47;94.77
68634;BME280;55625;47.072;22.192;2023-08-20T01:34:21;99903.38;;;21.39;95.40
68634;BME280;55625;47.072;22.192;2023-08-20T01:36:47;99913.34;;;21.32;95.02
68634;BME280;55625;47.072;22.192;2023-08-20T01:39:13;99913.06;;;21.30;95.25
68634;BME280;55625;47.072;22.192;2023-08-20T01:41:39;99908.31;;;21.22;96.07
68634;BME280;55625;47.072;22.192;2023-08-20T01:44:06;99908.59;;;21.18;96.05
68634;BME280;55625;47.072;22.192;2023-08-20T01:46:32;99912.00;;;21.17;96.44
68634;BME280;55625;47.072;22.192;2023-08-20T01:48:58;99912.25;;;21.13;96.60
68634;BME280;55625;47.072;22.192;2023-08-20T01:51:24;99910.13;;;21.08;97.02
68634;BME280;55625;47.072;22.192;2023-08-20T01:53:50;99905.94;;;21.09;97.22
68634;BME280;55625;47.072;22.192;2023-08-20T01:56:16;99910.13;;;21.08;97.62
68634;BME280;55625;47.072;22.192;2023-08-20T01:58:42;99917.72;;;21.11;96.98
68634;BME280;55625;47.072;22.192;2023-08-20T02:01:08;99905.41;;;21.11;97.29
68634;BME280;55625;47.072;22.192;2023-08-20T02:03:36;99908.06;;;21.14;97.11
68634;BME280;55625;47.072;22.192;2023-08-20T02:06:03;99912.25;;;21.13;96.80
68634;BME280;55625;47.072;22.192;2023-08-20T02:08:29;99919.59;;;21.14;97.11
68634;BME280;55625;47.072;22.192;2023-08-20T02:11:04;99913.53;;;21.12;96.87
68634;BME280;55625;47.072;22.192;2023-08-20T02:13:33;99923.81;;;21.13;97.10
68634;BME280;55625;47.072;22.192;2023-08-20T02:16:01;99913.53;;;21.12;96.81
68634;BME280;55625;47.072;22.192;2023-08-20T02:18:28;99903.03;;;21.09;96.67
68634;BME280;55625;47.072;22.192;2023-08-20T02:20:54;99908.28;;;21.05;96.45
68634;BME280;55625;47.072;22.192;2023-08-20T02:23:20;99911.69;;;21.09;95.91
68634;BME280;55625;47.072;22.192;2023-08-20T02:25:47;99906.72;;;21.04;96.50
68634;BME280;55625;47.072;22.192;2023-08-20T02:28:13;99907.75;;;21.01;96.92
68634;BME280;55625;47.072;22.192;2023-08-20T02:30:44;99913.78;;;21.03;96.43
68634;BME280;55625;47.072;22.192;2023-08-20T02:33:10;99912.47;;;20.98;97.41
68634;BME280;55625;47.072;22.192;2023-08-20T02:35:40;99907.22;;;20.97;97.36
68634;BME280;55625;47.072;22.192;2023-08-20T02:38:06;99920.63;;;21.00;97.16
68634;BME280;55625;47.072;22.192;2023-08-20T02:40:32;99918.78;;;21.02;96.62
68634;BME280;55625;47.072;22.192;2023-08-20T02:42:58;99914.31;;;21.01;96.69
68634;BME280;55625;47.072;22.192;2023-08-20T02:45:24;99922.19;;;21.01;96.83
68634;BME280;55625;47.072;22.192;2023-08-20T02:47:51;99919.56;;;21.03;96.42
68634;BME280;55625;47.072;22.192;2023-08-20T02:50:16;99915.91;;;21.08;95.40
68634;BME280;55625;47.072;22.192;2023-08-20T02:52:42;99916.69;;;21.03;95.77
68634;BME280;55625;47.072;22.192;2023-08-20T02:55:09;99914.31;;;20.96;95.63
68634;BME280;55625;47.072;22.192;2023-08-20T02:57:34;99917.72;;;20.94;96.33
68634;BME280;55625;47.072;22.192;2023-08-20T03:00:00;99912.72;;;20.89;96.63
68634;BME280;55625;47.072;22.192;2023-08-20T03:02:26;99916.66;;;20.92;96.90
68634;BME280;55625;47.072;22.192;2023-08-20T03:04:52;99910.88;;;20.86;97.46
68634;BME280;55625;47.072;22.192;2023-08-20T03:07:18;99916.41;;;20.84;97.54
68634;BME280;55625;47.072;22.192;2023-08-20T03:09:44;99917.44;;;20.87;97.66
68634;BME280;55625;47.072;22.192;2023-08-20T03:12:10;99922.44;;;20.86;97.66
68634;BME280;55625;47.072;22.192;2023-08-20T03:14:36;99928.47;;;20.88;97.03
68634;BME280;55625;47.072;22.192;2023-08-20T03:17:02;99926.38;;;20.89;97.01
68634;BME280;55625;47.072;22.192;2023-08-20T03:19:33;99930.81;;;20.90;96.07
68634;BME280;55625;47.072;22.192;2023-08-20T03:21:59;99931.34;;;20.88;95.81
68634;BME280;55625;47.072;22.192;2023-08-20T03:24:24;99921.91;;;20.88;95.53
68634;BME280;55625;47.072;22.192;2023-08-20T03:26:50;99922.44;;;20.86;95.47
68634;BME280;55625;47.072;22.192;2023-08-20T03:29:16;99930.03;;;20.84;96.02
68634;BME280;55625;47.072;22.192;2023-08-20T03:31:42;99923.47;;;20.83;96.00
68634;BME280;55625;47.072;22.192;2023-08-20T03:34:08;99925.84;;;20.85;96.05
68634;BME280;55625;47.072;22.192;2023-08-20T03:36:35;99931.59;;;20.85;95.94
68634;BME280;55625;47.072;22.192;2023-08-20T03:39:01;99929.25;;;20.83;95.49
68634;BME280;55625;47.072;22.192;2023-08-20T03:41:27;99921.09;;;20.82;95.27
68634;BME280;55625;47.072;22.192;2023-08-20T03:43:52;99924.78;;;20.82;95.07
68634;BME280;55625;47.072;22.192;2023-08-20T03:46:18;99930.00;;;20.78;95.33
68634;BME280;55625;47.072;22.192;2023-08-20T03:48:44;99932.66;;;20.87;94.65
68634;BME280;55625;47.072;22.192;2023-08-20T03:51:10;99930.50;;;20.76;95.27
68634;BME280;55625;47.072;22.192;2023-08-20T03:53:36;99929.19;;;20.72;95.28
68634;BME280;55625;47.072;22.192;2023-08-20T03:56:02;99930.47;;;20.65;95.80
68634;BME280;55625;47.072;22.192;2023-08-20T03:58:28;99943.88;;;20.68;95.38
68634;BME280;55625;47.072;22.192;2023-08-20T04:00:53;99933.13;;;20.74;94.81
68634;BME280;55625;47.072;22.192;2023-08-20T04:03:19;99939.66;;;20.69;95.29
68634;BME280;55625;47.072;22.192;2023-08-20T04:05:45;99939.66;;;20.64;95.39
68634;BME280;55625;47.072;22.192;2023-08-20T04:08:11;99938.09;;;20.68;95.29
68634;BME280;55625;47.072;22.192;2023-08-20T04:10:43;99934.16;;;20.71;95.02
68634;BME280;55625;47.072;22.192;2023-08-20T04:13:10;99931.56;;;20.73;95.13
68634;BME280;55625;47.072;22.192;2023-08-20T04:15:37;99937.34;;;20.79;95.10
68634;BME280;55625;47.072;22.192;2023-08-20T04:18:03;99929.75;;;20.82;94.14
68634;BME280;55625;47.072;22.192;2023-08-20T04:20:29;99936.81;;;20.81;95.04
68634;BME280;55625;47.072;22.192;2023-08-20T04:22:55;99938.13;;;20.80;94.95
68634;BME280;55625;47.072;22.192;2023-08-20T04:25:21;99930.78;;;20.78;95.06
68634;BME280;55625;47.072;22.192;2023-08-20T04:27:46;99933.44;;;20.82;95.11
68634;BME280;55625;47.072;22.192;2023-08-20T04:30:12;99938.44;;;20.93;94.19
68634;BME280;55625;47.072;22.192;2023-08-20T04:32:38;99936.88;;;20.97;94.02
68634;BME280;55625;47.072;22.192;2023-08-20T04:35:05;99934.78;;;20.98;94.23
68634;BME280;55625;47.072;22.192;2023-08-20T04:37:31;99932.44;;;21.07;93.69
68634;BME280;55625;47.072;22.192;2023-08-20T04:39:57;99932.47;;;21.19;93.50
68634;BME280;55625;47.072;22.192;2023-08-20T04:42:22;99926.19;;;21.26;92.27
68634;BME280;55625;47.072;22.192;2023-08-20T04:44:48;99939.59;;;21.34;92.28
68634;BME280;55625;47.072;22.192;2023-08-20T04:47:14;99940.13;;;21.50;90.89
68634;BME280;55625;47.072;22.192;2023-08-20T04:49:40;99936.19;;;21.58;91.10
68634;BME280;55625;47.072;22.192;2023-08-20T04:52:06;99925.16;;;21.68;90.15
68634;BME280;55625;47.072;22.192;2023-08-20T04:54:32;99929.09;;;21.76;89.33
68634;BME280;55625;47.072;22.192;2023-08-20T04:56:57;99933.81;;;21.85;88.40
68634;BME280;55625;47.072;22.192;2023-08-20T04:59:23;99938.28;;;21.91;88.84
68634;BME280;55625;47.072;22.192;2023-08-20T05:01:49;99926.41;;;22.00;88.46
68634;BME280;55625;47.072;22.192;2023-08-20T05:04:15;99934.06;;;22.15;87.20
68634;BME280;55625;47.072;22.192;2023-08-20T05:06:41;99930.88;;;22.35;86.24
68634;BME280;55625;47.072;22.192;2023-08-20T05:09:06;99924.53;;;22.42;85.87
68634;BME280;55625;47.072;22.192;2023-08-20T05:11:32;99928.41;;;22.50;85.14
68634;BME280;55625;47.072;22.192;2023-08-20T05:14:00;99935.47;;;22.60;85.30
68634;BME280;55625;47.072;22.192;2023-08-20T05:16:26;99930.97;;;22.71;84.75
68634;BME280;55625;47.072;22.192;2023-08-20T05:18:51;99932.22;;;22.86;84.30
68634;BME280;55625;47.072;22.192;2023-08-20T05:21:17;99930.81;;;23.04;83.28
68634;BME280;55625;47.072;22.192;2023-08-20T05:23:43;99933.88;;;23.17;81.89
68634;BME280;55625;47.072;22.192;2023-08-20T05:26:09;99931.19;;;23.31;81.26
68634;BME280;55625;47.072;22.192;2023-08-20T05:28:35;99935.56;;;23.43;80.12
68634;BME280;55625;47.072;22.192;2023-08-20T05:31:01;99931.56;;;23.46;80.18
68634;BME280;55625;47.072;22.192;2023-08-20T05:33:27;99933.63;;;23.51;81.31
68634;BME280;55625;47.072;22.192;2023-08-20T05:35:53;99936.16;;;23.71;80.13
68634;BME280;55625;47.072;22.192;2023-08-20T05:38:19;99941.81;;;23.88;78.43
68634;BME280;55625;47.072;22.192;2023-08-20T05:40:45;99941.50;;;23.92;78.84
68634;BME280;55625;47.072;22.192;2023-08-20T05:43:10;99949.25;;;24.08;77.31
68634;BME280;55625;47.072;22.192;2023-08-20T05:45:36;99947.06;;;24.14;76.35
68634;BME280;55625;47.072;22.192;2023-08-20T05:48:02;99951.44;;;24.26;76.54
68634;BME280;55625;47.072;22.192;2023-08-20T05:50:28;99958.16;;;24.40;76.18
68634;BME280;55625;47.072;22.192;2023-08-20T05:52:54;99951.69;;;24.53;76.21
68634;BME280;55625;47.072;22.192;2023-08-20T05:55:20;99956.97;;;24.73;74.92
68634;BME280;55625;47.072;22.192;2023-08-20T05:57:46;99957.41;;;24.83;74.23
68634;BME280;55625;47.072;22.192;2023-08-20T06:00:12;99968.53;;;24.97;74.72
68634;BME280;55625;47.072;22.192;2023-08-20T06:02:38;99955.16;;;25.13;73.69
68634;BME280;55625;47.072;22.192;2023-08-20T06:05:04;99969.19;;;25.28;72.65
68634;BME280;55625;47.072;22.192;2023-08-20T06:07:31;99960.28;;;25.39;72.24
68634;BME280;55625;47.072;22.192;2023-08-20T06:09:57;99964.44;;;25.62;71.63
68634;BME280;55625;47.072;22.192;2023-08-20T06:12:23;99965.88;;;25.75;70.64
68634;BME280;55625;47.072;22.192;2023-08-20T06:14:49;99960.06;;;25.88;70.65
68634;BME280;55625;47.072;22.192;2023-08-20T06:17:15;99962.00;;;25.98;70.35
68634;BME280;55625;47.072;22.192;2023-08-20T06:19:44;99955.75;;;26.08;70.65
68634;BME280;55625;47.072;22.192;2023-08-20T06:22:10;99961.72;;;26.28;70.01
68634;BME280;55625;47.072;22.192;2023-08-20T06:24:36;99964.22;;;26.38;68.39
68634;BME280;55625;47.072;22.192;2023-08-20T06:27:01;99964.56;;;26.47;67.18
68634;BME280;55625;47.072;22.192;2023-08-20T06:29:27;99964.88;;;26.57;67.17
68634;BME280;55625;47.072;22.192;2023-08-20T06:31:53;99960.84;;;26.60;67.32
68634;BME280;55625;47.072;22.192;2023-08-20T06:34:19;99969.81;;;26.62;67.42
68634;BME280;55625;47.072;22.192;2023-08-20T06:36:45;99972.94;;;26.77;67.83
68634;BME280;55625;47.072;22.192;2023-08-20T06:39:10;99971.34;;;26.89;67.22
68634;BME280;55625;47.072;22.192;2023-08-20T06:41:36;99976.09;;;27.06;66.83
68634;BME280;55625;47.072;22.192;2023-08-20T06:44:03;99978.72;;;27.30;66.34
68634;BME280;55625;47.072;22.192;2023-08-20T06:46:29;99980.22;;;27.44;64.76
68634;BME280;55625;47.072;22.192;2023-08-20T06:48:55;99976.41;;;27.49;62.25
68634;BME280;55625;47.072;22.192;2023-08-20T06:51:21;99971.66;;;27.60;62.23
68634;BME280;55625;47.072;22.192;2023-08-20T06:53:49;99974.53;;;27.73;63.25
68634;BME280;55625;47.072;22.192;2023-08-20T06:56:15;99994.47;;;27.82;63.35
68634;BME280;55625;47.072;22.192;2023-08-20T06:58:42;99992.34;;;28.03;62.14
68634;BME280;55625;47.072;22.192;2023-08-20T07:01:08;99997.84;;;28.28;60.93
68634;BME280;55625;47.072;22.192;2023-08-20T07:03:38;99995.66;;;28.49;60.57
68634;BME280;55625;47.072;22.192;2023-08-20T07:06:04;99992.16;;;28.79;60.38
68634;BME280;55625;47.072;22.192;2023-08-20T07:08:30;99995.84;;;29.08;59.25
68634;BME280;55625;47.072;22.192;2023-08-20T07:10:56;100000.41;;;29.24;58.31
68634;BME280;55625;47.072;22.192;2023-08-20T07:13:23;100002.28;;;29.50;57.20
68634;BME280;55625;47.072;22.192;2023-08-20T07:15:49;100006.06;;;29.74;57.84
68634;BME280;55625;47.072;22.192;2023-08-20T07:18:15;100011.16;;;29.88;55.27
68634;BME280;55625;47.072;22.192;2023-08-20T07:20:43;100005.88;;;29.87;54.01
68634;BME280;55625;47.072;22.192;2023-08-20T07:23:10;100014.84;;;29.96;54.82
68634;BME280;55625;47.072;22.192;2023-08-20T07:25:40;100005.56;;;30.06;55.24
68634;BME280;55625;47.072;22.192;2023-08-20T07:28:08;100013.94;;;30.17;55.76
68634;BME280;55625;47.072;22.192;2023-08-20T07:30:35;100013.75;;;30.22;54.04
68634;BME280;55625;47.072;22.192;2023-08-20T07:33:02;100008.28;;;30.34;54.88
68634;BME280;55625;47.072;22.192;2023-08-20T07:35:28;100029.19;;;30.61;56.41
68634;BME280;55625;47.072;22.192;2023-08-20T07:37:54;100022.47;;;30.91;55.41
68634;BME280;55625;47.072;22.192;2023-08-20T07:40:20;100014.81;;;31.18;54.61
68634;BME280;55625;47.072;22.192;2023-08-20T07:42:46;100021.03;;;31.30;52.44
68634;BME280;55625;47.072;22.192;2023-08-20T07:45:12;100014.75;;;31.34;52.11
68634;BME280;55625;47.072;22.192;2023-08-20T07:47:39;100016.31;;;31.35;52.43
68634;BME280;55625;47.072;22.192;2023-08-20T07:50:06;100022.97;;;31.35;52.69
68634;BME280;55625;47.072;22.192;2023-08-20T07:52:32;100021.50;;;31.59;52.81
68634;BME280;55625;47.072;22.192;2023-08-20T07:54:58;100016.09;;;31.80;52.37
68634;BME280;55625;47.072;22.192;2023-08-20T07:57:24;100020.88;;;32.01;51.33
68634;BME280;55625;47.072;22.192;2023-08-20T07:59:51;100013.78;;;32.04;51.02
68634;BME280;55625;47.072;22.192;2023-08-20T08:02:17;100016.28;;;32.15;51.78
68634;BME280;55625;47.072;22.192;2023-08-20T08:04:43;100011.41;;;32.35;50.92
68634;BME280;55625;47.072;22.192;2023-08-20T08:07:10;100011.84;;;32.31;48.49
68634;BME280;55625;47.072;22.192;2023-08-20T08:09:37;100015.72;;;32.09;49.91
68634;BME280;55625;47.072;22.192;2023-08-20T08:12:04;100013.09;;;32.21;50.60
68634;BME280;55625;47.072;22.192;2023-08-20T08:14:30;100008.22;;;32.40;51.66
68634;BME280;55625;47.072;22.192;2023-08-20T08:16:56;100013.47;;;32.67;49.94
68634;BME280;55625;47.072;22.192;2023-08-20T08:19:22;100007.78;;;32.69;49.74
68634;BME280;55625;47.072;22.192;2023-08-20T08:21:48;100012.22;;;32.78;50.88
68634;BME280;55625;47.072;22.192;2023-08-20T08:24:14;100011.47;;;32.94;49.69
68634;BME280;55625;47.072;22.192;2023-08-20T08:26:41;100017.50;;;32.96;48.64
68634;BME280;55625;47.072;22.192;2023-08-20T08:29:08;100013.97;;;32.98;48.73
68634;BME280;55625;47.072;22.192;2023-08-20T08:31:35;100012.50;;;32.89;48.38
68634;BME280;55625;47.072;22.192;2023-08-20T08:34:02;100013.69;;;33.03;47.42
68634;BME280;55625;47.072;22.192;2023-08-20T08:36:28;100006.34;;;33.12;47.71
68634;BME280;55625;47.072;22.192;2023-08-20T08:38:54;100012.03;;;33.27;47.63
68634;BME280;55625;47.072;22.192;2023-08-20T08:41:25;100016.53;;;33.28;46.92
68634;BME280;55625;47.072;22.192;2023-08-20T08:43:53;100011.72;;;33.41;45.57
68634;BME280;55625;47.072;22.192;2023-08-20T08:46:21;100008.91;;;33.60;46.41
68634;BME280;55625;47.072;22.192;2023-08-20T08:48:48;100010.69;;;33.73;46.54
68634;BME280;55625;47.072;22.192;2023-08-20T08:51:14;100005.13;;;33.77;45.64
68634;BME280;55625;47.072;22.192;2023-08-20T08:53:43;100014.31;;;33.81;45.27
68634;BME280;55625;47.072;22.192;2023-08-20T08:56:11;100018.88;;;33.91;45.82
68634;BME280;55625;47.072;22.192;2023-08-20T08:58:37;100013.22;;;34.03;46.48
68634;BME280;55625;47.072;22.192;2023-08-20T09:01:03;100014.03;;;34.13;45.89
68634;BME280;55625;47.072;22.192;2023-08-20T09:03:29;100009.09;;;34.25;46.76
68634;BME280;55625;47.072;22.192;2023-08-20T09:05:58;100018.47;;;34.32;46.25
68634;BME280;55625;47.072;22.192;2023-08-20T09:08:32;100014.50;;;34.19;45.86
68634;BME280;55625;47.072;22.192;2023-08-20T09:11:00;100024.69;;;34.36;47.01
68634;BME280;55625;47.072;22.192;2023-08-20T09:13:34;100024.47;;;34.61;45.76
68634;BME280;55625;47.072;22.192;2023-08-20T09:16:04;100020.91;;;34.72;44.87
68634;BME280;55625;47.072;22.192;2023-08-20T09:18:32;100018.91;;;34.74;45.55
68634;BME280;55625;47.072;22.192;2023-08-20T09:20:58;100022.38;;;34.90;46.57
68634;BME280;55625;47.072;22.192;2023-08-20T09:23:28;100020.50;;;35.14;44.19
68634;BME280;55625;47.072;22.192;2023-08-20T09:25:55;100015.53;;;35.16;45.09
68634;BME280;55625;47.072;22.192;2023-08-20T09:28:21;100011.06;;;35.25;44.64
68634;BME280;55625;47.072;22.192;2023-08-20T09:31:00;100014.66;;;35.33;43.48
68634;BME280;55625;47.072;22.192;2023-08-20T09:33:29;100009.66;;;35.26;43.31
68634;BME280;55625;47.072;22.192;2023-08-20T09:35:55;100006.72;;;35.26;44.14
68634;BME280;55625;47.072;22.192;2023-08-20T09:38:23;100011.53;;;35.31;43.55
68634;BME280;55625;47.072;22.192;2023-08-20T09:40:52;100003.78;;;35.36;44.01
68634;BME280;55625;47.072;22.192;2023-08-20T09:43:19;100000.31;;;35.59;43.59
68634;BME280;55625;47.072;22.192;2023-08-20T09:45:47;100001.38;;;35.73;43.38
68634;BME280;55625;47.072;22.192;2023-08-20T09:48:18;99999.00;;;35.81;41.54
68634;BME280;55625;47.072;22.192;2023-08-20T09:50:47;100003.88;;;35.86;40.92
68634;BME280;55625;47.072;22.192;2023-08-20T09:53:35;99995.59;;;35.94;40.27
68634;BME280;55625;47.072;22.192;2023-08-20T09:56:19;100003.19;;;35.97;38.60
68634;BME280;55625;47.072;22.192;2023-08-20T09:58:49;99994.34;;;35.97;40.36
68634;BME280;55625;47.072;22.192;2023-08-20T10:01:16;100001.25;;;36.12;40.17
68634;BME280;55625;47.072;22.192;2023-08-20T10:03:43;100000.16;;;36.17;39.22
68634;BME280;55625;47.072;22.192;2023-08-20T10:06:10;100002.16;;;36.24;38.18
68634;BME280;55625;47.072;22.192;2023-08-20T10:08:37;99992.84;;;36.18;37.21
68634;BME280;55625;47.072;22.192;2023-08-20T10:11:03;99999.41;;;36.06;38.01
68634;BME280;55625;47.072;22.192;2023-08-20T10:13:30;99987.03;;;35.79;36.87
68634;BME280;55625;47.072;22.192;2023-08-20T10:15:56;99988.81;;;35.82;38.05
68634;BME280;55625;47.072;22.192;2023-08-20T10:18:22;99986.72;;;35.94;39.01
68634;BME280;55625;47.072;22.192;2023-08-20T10:20:51;99985.91;;;36.03;38.82
68634;BME280;55625;47.072;22.192;2023-08-20T10:23:22;99981.06;;;36.08;38.71
68634;BME280;55625;47.072;22.192;2023-08-20T10:25:54;99964.22;;;36.20;38.74
68634;BME280;55625;47.072;22.192;2023-08-20T10:28:25;99979.47;;;36.17;40.55
68634;BME280;55625;47.072;22.192;2023-08-20T10:31:12;99979.19;;;36.13;39.33
68634;BME280;55625;47.072;22.192;2023-08-20T10:33:50;99971.69;;;36.21;39.77
68634;BME280;55625;47.072;22.192;2023-08-20T10:36:21;99979.78;;;36.21;39.05
68634;BME280;55625;47.072;22.192;2023-08-20T10:38:51;99966.31;;;36.39;40.01
68634;BME280;55625;47.072;22.192;2023-08-20T10:41:28;99972.75;;;36.57;39.46
68634;BME280;55625;47.072;22.192;2023-08-20T10:44:00;99963.84;;;36.35;35.71
68634;BME280;55625;47.072;22.192;2023-08-20T10:46:28;99968.31;;;36.05;37.13
68634;BME280;55625;47.072;22.192;2023-08-20T10:49:00;99963.09;;;36.25;35.69
68634;BME280;55625;47.072;22.192;2023-08-20T10:51:34;99962.13;;;36.01;35.76
68634;BME280;55625;47.072;22.192;2023-08-20T10:56:48;99958.28;;;36.30;36.29
68634;BME280;55625;47.072;22.192;2023-08-20T11:01:47;99964.28;;;36.01;35.80
68634;BME280;55625;47.072;22.192;2023-08-20T11:04:16;99954.50;;;35.98;35.16
68634;BME280;55625;47.072;22.192;2023-08-20T11:06:43;99953.97;;;36.12;35.42
68634;BME280;55625;47.072;22.192;2023-08-20T11:09:09;99941.47;;;36.23;35.78
68634;BME280;55625;47.072;22.192;2023-08-20T11:11:39;99953.88;;;36.00;37.02
68634;BME280;55625;47.072;22.192;2023-08-20T11:14:11;99946.81;;;36.15;36.86
68634;BME280;55625;47.072;22.192;2023-08-20T11:16:39;99940.78;;;36.13;35.30
68634;BME280;55625;47.072;22.192;2023-08-20T11:19:06;99941.34;;;36.21;35.32
68634;BME280;55625;47.072;22.192;2023-08-20T11:21:38;99933.91;;;36.10;35.21
68634;BME280;55625;47.072;22.192;2023-08-20T11:24:05;99936.09;;;36.09;34.76
68634;BME280;55625;47.072;22.192;2023-08-20T11:26:36;99942.41;;;35.94;35.91
68634;BME280;55625;47.072;22.192;2023-08-20T11:29:12;99931.59;;;36.08;36.36
68634;BME280;55625;47.072;22.192;2023-08-20T11:31:39;99926.41;;;36.19;37.11
68634;BME280;55625;47.072;22.192;2023-08-20T11:34:06;99919.84;;;36.30;37.33
68634;BME280;55625;47.072;22.192;2023-08-20T11:36:33;99918.25;;;36.29;36.13
68634;BME280;55625;47.072;22.192;2023-08-20T11:39:00;99922.63;;;36.28;35.69
68634;BME280;55625;47.072;22.192;2023-08-20T11:41:26;99927.28;;;36.00;34.66
68634;BME280;55625;47.072;22.192;2023-08-20T11:43:53;99919.25;;;35.91;34.88
68634;BME280;55625;47.072;22.192;2023-08-20T11:46:23;99914.53;;;35.97;35.85
68634;BME280;55625;47.072;22.192;2023-08-20T11:49:10;99909.19;;;36.15;34.70
68634;BME280;55625;47.072;22.192;2023-08-20T11:51:37;99906.44;;;36.29;35.78
68634;BME280;55625;47.072;22.192;2023-08-20T11:54:06;99902.25;;;36.32;34.92
68634;BME280;55625;47.072;22.192;2023-08-20T11:56:34;99908.63;;;36.28;35.03
68634;BME280;55625;47.072;22.192;2023-08-20T11:59:01;99896.97;;;35.99;35.28
68634;BME280;55625;47.072;22.192;2023-08-20T12:01:34;99907.91;;;35.87;34.89
68634;BME280;55625;47.072;22.192;2023-08-20T12:04:10;99905.88;;;35.90;36.87
68634;BME280;55625;47.072;22.192;2023-08-20T12:06:38;99900.63;;;36.09;36.22
68634;BME280;55625;47.072;22.192;2023-08-20T12:09:23;99891.81;;;36.31;35.51
68634;BME280;55625;47.072;22.192;2023-08-20T12:11:54;99889.72;;;36.12;35.90
68634;BME280;55625;47.072;22.192;2023-08-20T12:14:21;99895.44;;;36.20;33.46
68634;BME280;55625;47.072;22.192;2023-08-20T12:16:47;99889.34;;;35.96;34.28
68634;BME280;55625;47.072;22.192;2023-08-20T12:19:14;99885.97;;;35.90;34.77
68634;BME280;55625;47.072;22.192;2023-08-20T12:21:40;99875.16;;;36.04;34.45
68634;BME280;55625;47.072;22.192;2023-08-20T12:24:09;99879.63;;;36.15;34.93
68634;BME280;55625;47.072;22.192;2023-08-20T12:26:39;99885.00;;;35.97;35.26
68634;BME280;55625;47.072;22.192;2023-08-20T12:29:05;99879.31;;;36.11;35.62
68634;BME280;55625;47.072;22.192;2023-08-20T12:31:35;99875.28;;;36.06;34.50
68634;BME280;55625;47.072;22.192;2023-08-20T12:34:01;99879.03;;;36.07;35.03
68634;BME280;55625;47.072;22.192;2023-08-20T12:36:28;99873.88;;;36.07;35.15
68634;BME280;55625;47.072;22.192;2023-08-20T12:38:55;99885.34;;;35.92;35.53
68634;BME280;55625;47.072;22.192;2023-08-20T12:41:21;99888.97;;;35.71;34.99
68634;BME280;55625;47.072;22.192;2023-08-20T12:43:47;99873.22;;;35.78;34.87
68634;BME280;55625;47.072;22.192;2023-08-20T12:46:12;99876.19;;;35.78;35.68
68634;BME280;55625;47.072;22.192;2023-08-20T12:48:40;99879.63;;;35.84;36.08
68634;BME280;55625;47.072;22.192;2023-08-20T12:51:06;99870.00;;;35.84;35.29
68634;BME280;55625;47.072;22.192;2023-08-20T12:53:32;99872.19;;;35.83;35.43
68634;BME280;55625;47.072;22.192;2023-08-20T12:55:58;99863.03;;;36.00;36.08
68634;BME280;55625;47.072;22.192;2023-08-20T12:58:24;99867.31;;;35.88;35.80